createdAt,value
2019-03-04T00:00:03.747Z,2.80
2019-03-04T00:01:03.761Z,2.80
2019-03-04T00:02:05.573Z,2.80
2019-03-04T00:03:03.724Z,2.80
2019-03-04T00:04:04.063Z,3.00
2019-03-04T00:05:03.687Z,2.90
2019-03-04T00:06:03.677Z,2.80
2019-03-04T00:07:03.763Z,2.60
2019-03-04T00:08:03.999Z,2.80
2019-03-04T00:09:03.652Z,2.70
2019-03-04T00:10:04.861Z,2.80
2019-03-04T00:11:03.630Z,2.90
2019-03-04T00:12:03.620Z,2.90
2019-03-04T00:13:03.605Z,2.70
2019-03-04T00:14:03.671Z,2.90
2019-03-04T00:15:03.592Z,2.70
2019-03-04T00:16:05.573Z,3.00
2019-03-04T00:17:03.571Z,2.60
2019-03-04T00:18:03.542Z,2.70
2019-03-04T00:19:03.643Z,2.50
2019-03-04T00:20:03.523Z,2.70
2019-03-04T00:21:03.571Z,3.10
2019-03-04T00:22:03.511Z,2.70
2019-03-04T00:23:03.499Z,2.90
2019-03-04T00:24:04.050Z,3.00
2019-03-04T00:25:03.461Z,2.50
2019-03-04T00:26:03.489Z,2.50
2019-03-04T00:27:03.441Z,2.70
2019-03-04T00:28:03.442Z,3.20
2019-03-04T00:29:03.460Z,3.00
2019-03-04T00:30:03.456Z,2.90
2019-03-04T00:31:03.422Z,2.70
2019-03-04T00:32:03.384Z,2.60
2019-03-04T00:33:03.373Z,2.90
2019-03-04T00:34:03.495Z,3.00
2019-03-04T00:35:03.352Z,2.90
2019-03-04T00:36:03.391Z,3.10
2019-03-04T00:37:04.078Z,3.40
2019-03-04T00:38:03.320Z,2.60
2019-03-04T00:39:03.303Z,3.00
2019-03-04T00:40:03.323Z,3.10
2019-03-04T00:41:03.332Z,2.90
2019-03-04T00:42:03.282Z,2.60
2019-03-04T00:43:04.255Z,2.70
2019-03-04T00:44:03.468Z,3.00
2019-03-04T00:45:03.282Z,2.90
2019-03-04T00:46:03.239Z,2.70
2019-03-04T00:47:03.242Z,2.60
2019-03-04T00:48:04.047Z,2.90
2019-03-04T00:49:03.193Z,3.00
2019-03-04T00:50:03.197Z,3.10
2019-03-04T00:51:03.204Z,3.10
2019-03-04T00:52:04.182Z,2.80
2019-03-04T00:53:03.166Z,3.00
2019-03-04T00:54:03.160Z,2.90
2019-03-04T00:55:03.132Z,3.20
2019-03-04T00:56:03.200Z,3.00
2019-03-04T00:57:03.129Z,2.90
2019-03-04T00:58:03.246Z,2.50
2019-03-04T00:59:03.089Z,3.20
2019-03-04T01:00:03.071Z,2.70
2019-03-04T01:01:03.207Z,3.00
2019-03-04T01:02:03.053Z,2.70
2019-03-04T01:03:03.049Z,3.00
2019-03-04T01:04:03.078Z,2.90
2019-03-04T01:05:03.040Z,3.00
2019-03-04T01:06:03.527Z,2.40
2019-03-04T01:07:03.044Z,2.70
2019-03-04T01:08:02.985Z,2.60
2019-03-04T01:09:02.969Z,2.60
2019-03-04T01:10:02.964Z,2.80
2019-03-04T01:11:03.642Z,2.30
2019-03-04T01:12:02.948Z,2.70
2019-03-04T01:13:03.114Z,3.10
2019-03-04T01:14:02.935Z,2.80
2019-03-04T01:15:02.915Z,2.50
2019-03-04T01:16:02.975Z,2.60
2019-03-04T01:17:02.887Z,3.00
2019-03-04T01:18:02.897Z,2.80
2019-03-04T01:19:02.865Z,2.80
2019-03-04T01:20:02.849Z,3.20
2019-03-04T01:21:02.950Z,2.70
2019-03-04T01:22:02.825Z,2.70
2019-03-04T01:23:02.852Z,2.60
2019-03-04T01:24:02.874Z,3.20
2019-03-04T01:25:02.796Z,2.50
2019-03-04T01:26:02.791Z,2.80
2019-03-04T01:27:02.827Z,2.60
2019-03-04T01:28:02.809Z,2.60
2019-03-04T01:29:02.765Z,2.70
2019-03-04T01:30:02.739Z,3.10
2019-03-04T01:31:02.768Z,2.60
2019-03-04T01:32:02.746Z,2.60
2019-03-04T01:33:02.765Z,2.70
2019-03-04T01:34:02.714Z,2.60
2019-03-04T01:35:02.707Z,2.50
2019-03-04T01:36:02.689Z,2.50
2019-03-04T01:37:02.669Z,2.50
2019-03-04T01:38:02.655Z,2.50
2019-03-04T01:39:02.677Z,2.40
2019-03-04T01:40:02.629Z,2.70
2019-03-04T01:41:02.630Z,2.90
2019-03-04T01:42:02.602Z,2.80
2019-03-04T01:43:02.604Z,2.80
2019-03-04T01:44:02.629Z,2.90
2019-03-04T01:45:02.734Z,2.50
2019-03-04T01:46:02.564Z,2.80
2019-03-04T01:47:02.554Z,2.50
2019-03-04T01:48:02.810Z,3.20
2019-03-04T01:49:02.531Z,2.70
2019-03-04T01:50:02.522Z,2.70
2019-03-04T01:51:02.555Z,2.40
2019-03-04T01:52:02.635Z,2.40
2019-03-04T01:53:02.514Z,2.50
2019-03-04T01:54:02.470Z,2.70
2019-03-04T01:55:02.461Z,2.80
2019-03-04T01:56:02.457Z,2.90
2019-03-04T01:57:02.457Z,2.70
2019-03-04T01:58:02.436Z,2.60
2019-03-04T01:59:02.459Z,2.40
2019-03-04T02:00:02.419Z,2.70
2019-03-04T02:01:02.480Z,2.40
2019-03-04T02:02:02.426Z,2.40
2019-03-04T02:03:02.369Z,2.50
2019-03-04T02:04:02.362Z,2.50
2019-03-04T02:05:02.362Z,2.50
2019-03-04T02:06:03.022Z,2.50
2019-03-04T02:07:02.323Z,2.20
2019-03-04T02:08:02.322Z,2.00
2019-03-04T02:09:02.313Z,2.30
2019-03-04T02:10:02.528Z,2.80
2019-03-04T02:11:02.299Z,2.00
2019-03-04T02:12:02.325Z,2.10
2019-03-04T02:13:02.313Z,2.30
2019-03-04T02:14:02.347Z,2.30
2019-03-04T02:15:02.232Z,1.90
2019-03-04T02:16:02.236Z,2.00
2019-03-04T02:17:02.224Z,2.00
2019-03-04T02:18:02.245Z,1.90
2019-03-04T02:19:04.068Z,2.40
2019-03-04T02:20:02.373Z,2.00
2019-03-04T02:21:02.168Z,2.40
2019-03-04T02:22:02.174Z,2.00
2019-03-04T02:23:03.140Z,2.20
2019-03-04T02:24:02.180Z,2.10
2019-03-04T02:25:02.127Z,2.40
2019-03-04T02:26:02.193Z,1.80
2019-03-04T02:27:02.109Z,1.80
2019-03-04T02:28:03.089Z,1.80
2019-03-04T02:29:02.108Z,2.10
2019-03-04T02:30:02.118Z,2.20
2019-03-04T02:31:02.149Z,1.80
2019-03-04T02:32:03.044Z,2.00
2019-03-04T02:33:02.061Z,1.60
2019-03-04T02:34:02.032Z,1.70
2019-03-04T02:35:02.072Z,1.80
2019-03-04T02:36:02.011Z,1.80
2019-03-04T02:37:02.608Z,2.00
2019-03-04T02:38:01.980Z,2.10
2019-03-04T02:39:01.999Z,1.80
2019-03-04T02:40:01.992Z,2.00
2019-03-04T02:41:01.943Z,1.80
2019-03-04T02:42:02.229Z,1.30
2019-03-04T02:43:02.539Z,1.90
2019-03-04T02:44:02.022Z,1.30
2019-03-04T02:45:01.907Z,1.60
2019-03-04T02:46:01.904Z,1.80
2019-03-04T02:47:03.095Z,1.60
2019-03-04T02:48:01.877Z,1.70
2019-03-04T02:49:02.094Z,1.70
2019-03-04T02:50:01.865Z,1.80
2019-03-04T02:51:01.868Z,1.50
2019-03-04T02:52:01.827Z,1.50
2019-03-04T02:53:01.823Z,1.50
2019-03-04T02:54:02.631Z,1.30
2019-03-04T02:55:01.826Z,1.60
2019-03-04T02:56:01.803Z,1.70
2019-03-04T02:57:01.875Z,1.60
2019-03-04T02:58:01.756Z,1.50
2019-03-04T02:59:01.804Z,1.50
2019-03-04T03:00:01.756Z,1.40
2019-03-04T03:01:01.743Z,1.50
2019-03-04T03:02:01.773Z,1.50
2019-03-04T03:03:01.704Z,1.50
2019-03-04T03:04:02.722Z,1.50
2019-03-04T03:05:02.706Z,1.60
2019-03-04T03:06:01.707Z,1.30
2019-03-04T03:07:01.675Z,1.70
2019-03-04T03:08:01.648Z,1.50
2019-03-04T03:09:01.674Z,1.60
2019-03-04T03:10:01.645Z,1.20
2019-03-04T03:11:01.626Z,1.40
2019-03-04T03:12:01.631Z,1.40
2019-03-04T03:13:01.601Z,1.30
2019-03-04T03:14:01.662Z,1.60
2019-03-04T03:15:01.570Z,1.60
2019-03-04T03:16:01.554Z,1.30
2019-03-04T03:17:01.643Z,1.40
2019-03-04T03:18:01.532Z,1.30
2019-03-04T03:19:01.545Z,1.30
2019-03-04T03:20:01.561Z,1.40
2019-03-04T03:21:01.496Z,1.20
2019-03-04T03:22:01.563Z,1.50
2019-03-04T03:23:01.670Z,1.30
2019-03-04T03:24:01.470Z,1.00
2019-03-04T03:25:01.473Z,1.30
2019-03-04T03:26:01.439Z,1.30
2019-03-04T03:27:01.545Z,1.30
2019-03-04T03:28:01.444Z,1.30
2019-03-04T03:29:01.420Z,1.20
2019-03-04T03:30:01.417Z,1.30
2019-03-04T03:31:01.546Z,1.40
2019-03-04T03:32:01.462Z,1.10
2019-03-04T03:33:01.384Z,1.10
2019-03-04T03:34:01.370Z,1.10
2019-03-04T03:35:01.396Z,1.10
2019-03-04T03:36:01.376Z,1.10
2019-03-04T03:37:01.323Z,1.20
2019-03-04T03:38:01.340Z,1.20
2019-03-04T03:39:01.309Z,1.20
2019-03-04T03:40:01.370Z,1.10
2019-03-04T03:41:01.288Z,1.00
2019-03-04T03:42:01.454Z,1.20
2019-03-04T03:43:01.269Z,1.00
2019-03-04T03:44:01.312Z,1.10
2019-03-04T03:45:01.251Z,1.00
2019-03-04T03:46:01.253Z,1.10
2019-03-04T03:47:01.300Z,1.20
2019-03-04T03:48:02.090Z,1.10
2019-03-04T03:49:01.191Z,1.30
2019-03-04T03:50:01.176Z,1.20
2019-03-04T03:51:01.218Z,1.30
2019-03-04T03:52:01.653Z,1.40
2019-03-04T03:53:01.213Z,1.00
2019-03-04T03:54:01.139Z,1.30
2019-03-04T03:55:01.185Z,1.10
2019-03-04T03:56:01.114Z,1.40
2019-03-04T03:57:01.137Z,1.20
2019-03-04T03:58:01.091Z,1.20
2019-03-04T03:59:01.090Z,1.40
2019-03-04T04:00:01.087Z,1.50
2019-03-04T04:01:01.056Z,1.50
2019-03-04T04:02:01.086Z,1.40
2019-03-04T04:03:01.033Z,1.40
2019-03-04T04:04:01.041Z,1.40
2019-03-04T04:05:01.038Z,1.20
2019-03-04T04:06:01.045Z,1.70
2019-03-04T04:07:01.070Z,1.50
2019-03-04T04:08:00.981Z,1.60
2019-03-04T04:09:07.552Z,1.60
2019-03-04T04:10:01.405Z,1.50
2019-03-04T04:11:00.957Z,1.60
2019-03-04T04:12:00.953Z,1.80
2019-03-04T04:13:00.953Z,1.80
2019-03-04T04:14:00.912Z,1.50
2019-03-04T04:15:01.119Z,1.50
2019-03-04T04:16:00.888Z,1.70
2019-03-04T04:17:00.925Z,1.60
2019-03-04T04:18:00.920Z,1.70
2019-03-04T04:19:00.858Z,1.70
2019-03-04T04:20:00.920Z,1.50
2019-03-04T04:21:00.928Z,2.00
2019-03-04T04:22:00.825Z,1.60
2019-03-04T04:23:00.870Z,1.70
2019-03-04T04:24:00.867Z,1.80
2019-03-04T04:25:00.793Z,1.70
2019-03-04T04:26:00.804Z,1.70
2019-03-04T04:27:00.768Z,1.70
2019-03-04T04:28:00.829Z,1.60
2019-03-04T04:29:00.801Z,1.70
2019-03-04T04:30:01.307Z,1.70
2019-03-04T04:31:00.813Z,1.40
2019-03-04T04:32:00.728Z,1.40
2019-03-04T04:33:00.696Z,1.50
2019-03-04T04:34:00.685Z,1.50
2019-03-04T04:35:00.882Z,1.70
2019-03-04T04:36:01.878Z,1.90
2019-03-04T04:37:00.667Z,1.90
2019-03-04T04:38:00.680Z,1.70
2019-03-04T04:39:01.579Z,1.80
2019-03-04T04:40:00.654Z,1.50
2019-03-04T04:41:00.626Z,1.80
2019-03-04T04:42:00.598Z,1.30
2019-03-04T04:43:00.887Z,1.60
2019-03-04T04:44:00.574Z,1.50
2019-03-04T04:45:00.729Z,1.70
2019-03-04T04:46:00.552Z,1.70
2019-03-04T04:47:00.651Z,1.50
2019-03-04T04:48:00.647Z,1.60
2019-03-04T04:49:01.113Z,1.50
2019-03-04T04:50:00.635Z,1.50
2019-03-04T04:51:01.059Z,1.20
2019-03-04T04:52:00.576Z,1.60
2019-03-04T04:53:00.516Z,1.50
2019-03-04T04:54:01.142Z,1.60
2019-03-04T04:55:00.611Z,1.30
2019-03-04T04:56:00.534Z,1.40
2019-03-04T04:57:00.437Z,1.50
2019-03-04T04:58:00.435Z,1.60
2019-03-04T04:59:00.636Z,1.30
2019-03-04T05:01:34.679Z,1.60
2019-03-04T05:02:35.383Z,1.70
2019-03-04T05:03:34.436Z,1.30
2019-03-04T05:04:34.389Z,1.60
2019-03-04T05:05:34.346Z,1.20
2019-03-04T05:06:34.912Z,1.20
2019-03-04T05:07:34.350Z,1.40
2019-03-04T05:08:34.317Z,1.30
2019-03-04T05:09:34.224Z,1.20
2019-03-04T05:10:34.250Z,1.20
2019-03-04T05:11:34.196Z,1.40
2019-03-04T05:12:34.204Z,1.30
2019-03-04T05:13:34.315Z,1.50
2019-03-04T05:14:34.163Z,1.30
2019-03-04T05:15:34.156Z,1.50
2019-03-04T05:16:34.463Z,1.10
2019-03-04T05:17:34.847Z,1.40
2019-03-04T05:18:34.130Z,1.20
2019-03-04T05:19:34.175Z,1.10
2019-03-04T05:20:34.103Z,1.20
2019-03-04T05:21:34.123Z,1.10
2019-03-04T05:22:34.072Z,1.30
2019-03-04T05:23:34.100Z,1.10
2019-03-04T05:24:34.053Z,1.20
2019-03-04T05:25:34.046Z,1.10
2019-03-04T05:26:34.024Z,1.40
2019-03-04T05:27:34.032Z,1.00
2019-03-04T05:28:34.040Z,1.10
2019-03-04T05:29:33.989Z,1.20
2019-03-04T05:30:33.983Z,1.30
2019-03-04T05:31:35.167Z,1.10
2019-03-04T05:32:34.185Z,1.10
2019-03-04T05:33:34.017Z,1.00
2019-03-04T05:34:33.945Z,1.20
2019-03-04T05:35:33.945Z,1.00
2019-03-04T05:36:33.977Z,1.10
2019-03-04T05:37:42.441Z,1.20
2019-03-04T05:38:33.889Z,1.20
2019-03-04T05:39:33.878Z,1.20
2019-03-04T05:40:33.881Z,1.20
2019-03-04T05:41:34.488Z,0.90
2019-03-04T05:42:33.895Z,1.20
2019-03-04T05:43:34.481Z,1.40
2019-03-04T05:44:34.425Z,1.20
2019-03-04T05:45:33.824Z,1.30
2019-03-04T05:46:33.926Z,1.30
2019-03-04T05:47:34.433Z,1.30
2019-03-04T05:48:33.805Z,1.10
2019-03-04T05:49:33.779Z,1.00
2019-03-04T05:50:33.785Z,1.20
2019-03-04T05:51:33.748Z,1.10
2019-03-04T05:52:33.887Z,1.30
2019-03-04T05:53:34.169Z,1.00
2019-03-04T05:54:33.727Z,1.30
2019-03-04T05:55:35.437Z,1.10
2019-03-04T05:56:33.696Z,1.30
2019-03-04T05:57:34.421Z,1.20
2019-03-04T05:58:33.697Z,1.40
2019-03-04T05:59:33.751Z,1.20
2019-03-04T06:00:33.686Z,1.40
2019-03-04T06:01:33.667Z,1.30
2019-03-04T06:02:33.844Z,1.00
2019-03-04T06:03:33.631Z,1.20
2019-03-04T06:04:33.683Z,1.20
2019-03-04T06:05:33.596Z,1.30
2019-03-04T06:06:33.592Z,1.40
2019-03-04T06:07:33.701Z,1.30
2019-03-04T06:08:33.573Z,1.30
2019-03-04T06:09:33.557Z,1.40
2019-03-04T06:10:33.559Z,1.30
2019-03-04T06:11:33.531Z,1.20
2019-03-04T06:12:35.625Z,1.30
2019-03-04T06:13:33.508Z,1.20
2019-03-04T06:14:33.555Z,1.20
2019-03-04T06:15:34.421Z,1.20
2019-03-04T06:16:34.439Z,1.20
2019-03-04T06:17:33.474Z,1.50
2019-03-04T06:18:33.810Z,1.20
2019-03-04T06:19:34.460Z,1.80
2019-03-04T06:20:33.468Z,1.30
2019-03-04T06:21:33.454Z,1.40
2019-03-04T06:22:33.406Z,1.40
2019-03-04T06:23:33.400Z,1.40
2019-03-04T06:24:33.464Z,1.30
2019-03-04T06:25:33.374Z,1.40
2019-03-04T06:26:33.381Z,1.20
2019-03-04T06:27:33.358Z,1.40
2019-03-04T06:28:33.340Z,1.20
2019-03-04T06:29:33.341Z,1.30
2019-03-04T06:30:33.323Z,1.50
2019-03-04T06:31:33.318Z,1.40
2019-03-04T06:32:33.291Z,1.30
2019-03-04T06:33:42.120Z,1.70
2019-03-04T06:34:33.880Z,1.30
2019-03-04T06:35:33.349Z,1.70
2019-03-04T06:36:34.176Z,1.30
2019-03-04T06:37:34.067Z,1.50
2019-03-04T06:38:33.224Z,1.40
2019-03-04T06:39:33.225Z,1.50
2019-03-04T06:40:33.395Z,1.50
2019-03-04T06:43:49.533Z,1.70
2019-03-04T06:44:49.380Z,1.80
2019-03-04T06:47:36.051Z,1.30
2019-03-04T06:48:41.123Z,1.40
2019-03-04T06:49:35.446Z,1.60
2019-03-04T06:50:35.406Z,1.60
2019-03-04T06:51:35.409Z,1.60
2019-03-04T06:52:36.183Z,1.70
2019-03-04T06:53:35.591Z,2.30
2019-03-04T06:54:36.415Z,1.70
2019-03-04T06:55:35.357Z,59.90
2019-03-04T06:56:35.386Z,64.50
2019-03-04T06:57:35.478Z,58.80
2019-03-04T06:58:35.318Z,58.10
2019-03-04T06:59:35.334Z,70.00
2019-03-04T07:00:35.366Z,61.20
2019-03-04T07:01:35.306Z,57.50
2019-03-04T07:02:35.275Z,58.80
2019-03-04T07:03:35.294Z,51.80
2019-03-04T07:04:35.436Z,42.50
2019-03-04T07:05:35.244Z,49.70
2019-03-04T07:06:35.228Z,39.50
2019-03-04T07:07:36.127Z,44.20
2019-03-04T07:08:35.216Z,51.70
2019-03-04T07:09:35.218Z,374.00
2019-03-04T07:10:35.255Z,459.80
2019-03-04T07:11:35.173Z,351.90
2019-03-04T07:12:35.447Z,291.50
2019-03-04T07:13:35.253Z,331.10
2019-03-04T07:14:35.163Z,216.90
2019-03-04T07:15:35.169Z,350.50
2019-03-04T07:16:35.123Z,246.30
2019-03-04T07:17:35.236Z,240.60
2019-03-04T07:18:35.106Z,333.50
2019-03-04T07:19:35.092Z,160.70
2019-03-04T07:20:35.096Z,297.80
2019-03-04T07:21:35.084Z,280.40
2019-03-04T07:22:35.111Z,289.40
2019-03-04T07:23:35.057Z,305.40
2019-03-04T07:24:35.082Z,299.60
2019-03-04T07:25:35.029Z,291.20
2019-03-04T07:26:35.075Z,336.10
2019-03-04T07:27:35.660Z,322.50
2019-03-04T07:28:35.067Z,411.80
2019-03-04T07:29:35.006Z,393.80
2019-03-04T07:32:09.180Z,292.70
2019-03-04T07:33:08.365Z,273.00
2019-03-04T07:34:08.849Z,256.40
2019-03-04T07:35:08.994Z,171.80
2019-03-04T07:36:08.254Z,251.90
2019-03-04T07:37:08.524Z,155.40
2019-03-04T07:38:08.114Z,175.50
2019-03-04T07:39:08.118Z,245.10
2019-03-04T07:40:08.100Z,270.50
2019-03-04T07:41:08.071Z,181.80
2019-03-04T07:42:09.466Z,201.90
2019-03-04T07:43:08.060Z,101.20
2019-03-04T07:44:09.150Z,173.60
2019-03-04T07:45:10.572Z,209.90
2019-03-04T07:46:08.007Z,208.70
2019-03-04T07:47:08.007Z,238.20
2019-03-04T07:48:07.990Z,236.30
2019-03-04T07:49:08.584Z,197.10
2019-03-04T07:50:08.068Z,158.50
2019-03-04T07:51:07.979Z,287.50
2019-03-04T07:52:08.050Z,166.60
2019-03-04T07:53:07.933Z,224.40
2019-03-04T07:54:07.967Z,195.30
2019-03-04T07:55:07.927Z,166.20
2019-03-04T07:56:07.937Z,226.10
2019-03-04T07:57:08.055Z,168.80
2019-03-04T07:58:14.577Z,229.40
2019-03-04T07:59:08.570Z,226.00
2019-03-04T08:00:07.874Z,164.40
2019-03-04T08:01:07.853Z,138.40
2019-03-04T08:02:07.857Z,245.20
2019-03-04T08:03:07.886Z,261.80
2019-03-04T08:04:07.813Z,229.90
2019-03-04T08:05:07.899Z,285.20
2019-03-04T08:06:07.826Z,243.70
2019-03-04T08:07:07.881Z,190.20
2019-03-04T08:10:53.613Z,206.90
2019-03-04T08:11:52.407Z,185.70
2019-03-04T08:12:52.419Z,236.10
2019-03-04T08:13:52.387Z,194.20
2019-03-04T08:14:52.365Z,117.50
2019-03-04T08:15:52.475Z,211.80
2019-03-04T08:16:52.393Z,156.80
2019-03-04T08:17:52.515Z,205.60
2019-03-04T08:18:52.319Z,171.60
2019-03-04T08:19:52.313Z,139.50
2019-03-04T08:20:52.305Z,201.60
2019-03-04T08:21:52.336Z,272.00
2019-03-04T08:22:52.288Z,249.50
2019-03-04T08:23:52.266Z,233.10
2019-03-04T08:24:52.251Z,234.20
2019-03-04T08:25:52.338Z,177.20
2019-03-04T08:26:52.245Z,177.00
2019-03-04T08:27:52.221Z,177.90
2019-03-04T08:28:52.253Z,201.60
2019-03-04T08:29:52.199Z,209.20
2019-03-04T08:30:52.203Z,258.60
2019-03-04T08:31:52.258Z,200.70
2019-03-04T08:32:52.189Z,199.60
2019-03-04T08:33:52.231Z,182.30
2019-03-04T08:34:52.139Z,159.60
2019-03-04T08:35:52.161Z,140.20
2019-03-04T08:36:52.150Z,158.80
2019-03-04T08:37:52.105Z,219.10
2019-03-04T08:38:52.146Z,235.50
2019-03-04T08:39:52.084Z,255.10
2019-03-04T08:40:52.072Z,285.70
2019-03-04T08:41:52.102Z,234.80
2019-03-04T08:42:52.056Z,284.30
2019-03-04T08:43:52.061Z,256.80
2019-03-04T08:44:52.052Z,281.20
2019-03-04T08:45:52.970Z,246.00
2019-03-04T08:46:52.079Z,240.30
2019-03-04T08:48:28.881Z,204.20
2019-03-04T08:48:52.151Z,160.60
2019-03-04T08:49:52.033Z,200.90
2019-03-04T08:50:51.963Z,241.60
2019-03-04T08:51:51.951Z,223.40
2019-03-04T08:52:51.981Z,209.30
2019-03-04T08:53:51.934Z,263.20
2019-03-04T08:54:51.918Z,277.00
2019-03-04T08:55:51.987Z,274.40
2019-03-04T08:56:51.898Z,151.10
2019-03-04T08:57:51.916Z,240.20
2019-03-04T08:58:51.871Z,211.80
2019-03-04T08:59:51.865Z,237.30
2019-03-04T09:00:52.845Z,188.90
2019-03-04T09:01:51.857Z,220.40
2019-03-04T09:02:51.831Z,164.80
2019-03-04T09:03:51.837Z,204.10
2019-03-04T09:04:51.805Z,222.40
2019-03-04T09:05:51.794Z,200.40
2019-03-04T09:06:52.892Z,189.10
2019-03-04T09:24:56.728Z,162.20
2019-03-04T09:25:56.234Z,195.00
2019-03-04T09:26:56.271Z,115.00
2019-03-04T09:32:07.132Z,149.90
2019-03-04T09:33:06.912Z,133.90
2019-03-04T09:34:06.953Z,84.20
2019-03-04T09:35:07.069Z,100.20
2019-03-04T09:36:07.018Z,67.40
2019-03-04T09:37:06.991Z,70.80
2019-03-04T09:38:07.686Z,69.50
2019-03-04T09:39:06.759Z,84.10
2019-03-04T09:40:06.758Z,84.60
2019-03-04T09:41:07.813Z,69.80
2019-03-04T09:42:06.759Z,99.40
2019-03-04T09:43:06.756Z,103.80
2019-03-04T09:44:06.740Z,88.20
2019-03-04T09:45:06.783Z,71.90
2019-03-04T09:46:06.682Z,66.40
2019-03-04T09:47:06.671Z,82.10
2019-03-04T09:48:06.768Z,108.90
2019-03-04T09:49:06.703Z,98.70
2019-03-04T09:50:06.635Z,99.50
2019-03-04T09:51:07.288Z,90.30
2019-03-04T09:52:06.684Z,89.90
2019-03-04T09:53:06.594Z,90.70
2019-03-04T09:54:09.230Z,73.60
2019-03-04T09:55:06.584Z,82.60
2019-03-04T09:56:06.561Z,83.30
2019-03-04T09:57:06.571Z,58.70
2019-03-04T09:58:06.540Z,96.10
2019-03-04T09:59:06.608Z,81.30
2019-03-04T10:00:06.534Z,73.10
2019-03-04T10:01:06.537Z,76.70
2019-03-04T10:02:06.518Z,63.50
2019-03-04T10:03:06.497Z,79.70
2019-03-04T10:04:06.692Z,69.60
2019-03-04T10:05:06.463Z,80.10
2019-03-04T10:06:06.481Z,87.40
2019-03-04T10:07:06.462Z,70.60
2019-03-04T10:08:07.252Z,78.20
2019-03-04T10:09:06.423Z,53.40
2019-03-04T10:10:06.438Z,68.20
2019-03-04T10:11:06.406Z,78.00
2019-03-04T10:12:06.408Z,88.60
2019-03-04T10:13:06.548Z,95.70
2019-03-04T10:14:06.793Z,77.00
2019-03-04T10:15:08.762Z,101.50
2019-03-04T10:16:07.225Z,86.30
2019-03-04T10:17:06.340Z,85.80
2019-03-04T10:18:06.409Z,84.30
2019-03-04T10:19:06.359Z,90.90
2019-03-04T10:20:06.290Z,39.90
2019-03-04T10:21:06.350Z,68.30
2019-03-04T10:22:06.336Z,84.10
2019-03-04T10:23:08.240Z,95.60
2019-03-04T10:24:06.246Z,132.90
2019-03-04T10:25:06.319Z,126.40
2019-03-04T10:26:06.251Z,129.60
2019-03-04T10:27:16.826Z,151.40
2019-03-04T10:28:06.426Z,243.70
2019-03-04T10:29:06.252Z,187.40
2019-03-04T10:30:06.438Z,179.70
2019-03-04T10:31:06.916Z,195.50
2019-03-04T10:32:06.692Z,251.60
2019-03-04T10:33:06.179Z,200.60
2019-03-04T10:34:06.203Z,168.90
2019-03-04T10:35:06.937Z,102.50
2019-03-04T10:36:06.309Z,165.60
2019-03-04T10:37:06.110Z,211.30
2019-03-04T10:38:06.399Z,220.10
2019-03-04T10:39:06.118Z,233.50
2019-03-04T10:40:06.075Z,273.80
2019-03-04T10:41:06.113Z,314.00
2019-03-04T10:42:06.211Z,290.90
2019-03-04T10:44:37.886Z,233.20
2019-03-04T10:45:35.583Z,301.50
2019-03-04T10:46:35.453Z,237.70
2019-03-04T10:47:35.775Z,261.60
2019-03-04T10:48:35.440Z,223.70
2019-03-04T10:49:37.615Z,310.40
2019-03-04T10:50:35.367Z,239.00
2019-03-04T11:01:30.136Z,197.60
2019-03-04T11:02:23.594Z,280.30
2019-03-04T11:03:22.013Z,189.10
2019-03-04T11:04:22.784Z,187.50
2019-03-04T11:05:22.368Z,240.00
2019-03-04T11:06:24.943Z,297.50
2019-03-04T11:07:22.025Z,250.80
2019-03-04T11:08:21.861Z,247.20
2019-03-04T11:09:21.741Z,239.40
2019-03-04T11:10:21.806Z,285.70
2019-03-04T11:11:29.459Z,267.50
2019-03-04T11:12:24.828Z,223.30
2019-03-04T11:13:21.806Z,225.90
2019-03-04T11:14:22.648Z,265.80
2019-03-04T11:15:21.677Z,240.30
2019-03-04T11:16:26.779Z,293.40
2019-03-04T11:17:30.340Z,269.30
2019-03-04T11:18:21.654Z,220.80
2019-03-04T11:19:22.220Z,195.60
2019-03-04T11:20:21.663Z,251.90
2019-03-04T11:21:21.689Z,259.90
2019-03-04T11:22:21.602Z,229.90
2019-03-04T11:23:22.239Z,234.00
2019-03-04T11:24:21.577Z,270.00
2019-03-04T11:25:22.330Z,252.90
2019-03-04T11:26:21.604Z,274.80
2019-03-04T11:27:21.553Z,186.30
2019-03-04T11:28:21.526Z,240.60
2019-03-04T11:29:21.523Z,251.50
2019-03-04T11:30:21.555Z,205.60
2019-03-04T11:31:21.509Z,225.60
2019-03-04T11:32:21.580Z,264.90
2019-03-04T11:33:21.524Z,188.70
2019-03-04T11:34:21.486Z,208.20
2019-03-04T11:35:21.581Z,288.40
2019-03-04T11:36:21.485Z,220.10
2019-03-04T11:37:21.551Z,258.50
2019-03-04T11:38:21.541Z,210.20
2019-03-04T11:40:51.204Z,153.40
2019-03-04T11:41:51.584Z,263.30
2019-03-04T11:42:51.093Z,218.40
2019-03-04T11:43:51.086Z,262.10
2019-03-04T11:44:51.023Z,203.60
2019-03-04T11:45:51.951Z,228.90
2019-03-04T11:46:50.941Z,202.50
2019-03-04T11:47:50.931Z,275.90
2019-03-04T11:48:51.857Z,256.30
2019-03-04T11:49:50.843Z,257.20
2019-03-04T11:50:54.408Z,173.90
2019-03-04T11:56:27.713Z,182.60
2019-03-04T11:57:27.720Z,134.60
2019-03-04T11:58:27.105Z,178.20
2019-03-04T11:59:29.812Z,231.90
2019-03-04T12:00:27.124Z,360.80
2019-03-04T12:01:26.980Z,297.10
2019-03-04T12:02:26.879Z,231.10
2019-03-04T12:03:26.870Z,148.50
2019-03-04T12:04:26.914Z,221.30
2019-03-04T12:05:28.788Z,285.50
2019-03-04T12:06:26.822Z,295.80
2019-03-04T12:07:26.858Z,322.40
2019-03-04T12:08:26.802Z,145.00
2019-03-04T12:09:26.792Z,308.50
2019-03-04T12:10:26.802Z,253.00
2019-03-04T12:11:26.760Z,193.40
2019-03-04T12:12:26.878Z,249.10
2019-03-04T12:13:26.757Z,211.70
2019-03-04T12:14:26.762Z,233.50
2019-03-04T12:15:26.769Z,202.80
2019-03-04T12:16:26.828Z,224.70
2019-03-04T12:17:26.693Z,209.60
2019-03-04T12:18:26.692Z,149.30
2019-03-04T12:19:28.780Z,260.00
2019-03-04T12:20:26.715Z,203.70
2019-03-04T12:21:26.695Z,277.90
2019-03-04T12:22:26.650Z,236.70
2019-03-04T12:23:26.633Z,242.10
2019-03-04T12:24:26.714Z,207.80
2019-03-04T12:25:26.645Z,193.20
2019-03-04T12:26:26.618Z,153.30
2019-03-04T12:27:26.635Z,208.10
2019-03-04T12:28:26.574Z,189.10
2019-03-04T12:29:26.578Z,143.50
2019-03-04T12:30:26.576Z,191.50
2019-03-04T12:31:28.378Z,138.50
2019-03-04T12:32:26.584Z,140.00
2019-03-04T12:33:26.528Z,141.90
2019-03-04T12:34:26.528Z,155.90
2019-03-04T12:35:26.576Z,117.70
2019-03-04T12:36:26.491Z,163.10
2019-03-04T12:37:26.504Z,95.20
2019-03-04T12:38:26.474Z,105.60
2019-03-04T12:39:26.451Z,109.30
2019-03-04T12:40:26.452Z,143.20
2019-03-04T12:41:26.443Z,149.20
2019-03-04T12:42:26.426Z,123.50
2019-03-04T12:43:26.416Z,94.80
2019-03-04T12:47:02.247Z,95.20
2019-03-04T12:48:11.747Z,102.00
2019-03-04T12:49:11.076Z,188.80
2019-03-04T12:50:02.059Z,92.50
2019-03-04T12:51:01.843Z,75.20
2019-03-04T12:52:01.672Z,62.70
2019-03-04T12:53:02.031Z,65.30
2019-03-04T12:54:01.707Z,45.70
2019-03-04T12:55:01.594Z,57.80
2019-03-04T12:56:01.539Z,61.10
2019-03-04T12:57:03.178Z,50.30
2019-03-04T12:58:01.523Z,56.50
2019-03-04T12:59:01.551Z,66.30
2019-03-04T13:00:01.519Z,56.70
2019-03-04T13:01:03.215Z,74.30
2019-03-04T13:02:01.530Z,47.30
2019-03-04T13:03:01.484Z,53.70
2019-03-04T13:04:01.511Z,57.50
2019-03-04T13:05:02.174Z,55.60
2019-03-04T13:06:01.440Z,75.20
2019-03-04T13:07:04.540Z,57.20
2019-03-04T13:08:01.437Z,76.60
2019-03-04T13:09:01.448Z,75.10
2019-03-04T13:10:01.457Z,70.80
2019-03-04T13:11:02.071Z,50.10
2019-03-04T13:12:01.369Z,65.80
2019-03-04T13:13:01.432Z,48.80
2019-03-04T13:15:02.417Z,82.30
2019-03-04T13:16:01.564Z,72.20
2019-03-04T13:17:01.328Z,72.20
2019-03-04T13:18:01.316Z,72.70
2019-03-04T13:19:01.305Z,78.50
2019-03-04T13:20:01.303Z,67.50
2019-03-04T13:21:01.311Z,82.80
2019-03-04T13:22:08.299Z,98.40
2019-03-04T13:23:02.254Z,83.10
2019-03-04T13:24:01.271Z,75.10
2019-03-04T13:25:10.987Z,61.90
2019-03-04T13:28:55.737Z,78.20
2019-03-04T13:29:56.127Z,89.90
2019-03-04T13:30:55.247Z,59.10
2019-03-04T13:31:54.867Z,48.60
2019-03-04T13:32:54.811Z,60.50
2019-03-04T13:33:54.773Z,51.30
2019-03-04T13:34:54.770Z,43.70
2019-03-04T13:35:54.900Z,39.50
2019-03-04T13:36:54.874Z,31.50
2019-03-04T13:37:54.773Z,36.90
2019-03-04T13:38:54.727Z,33.30
2019-03-04T13:39:54.750Z,36.80
2019-03-04T13:40:54.802Z,47.70
2019-03-04T13:41:54.701Z,35.20
2019-03-04T13:42:55.343Z,33.80
2019-03-04T13:46:01.465Z,36.20
2019-03-04T13:47:01.400Z,43.30
2019-03-04T13:48:01.124Z,31.90
2019-03-04T13:49:01.400Z,39.50
2019-03-04T13:50:01.032Z,41.60
2019-03-04T13:51:01.133Z,40.50
2019-03-04T13:52:01.026Z,43.20
2019-03-04T13:53:01.270Z,37.90
2019-03-04T13:54:00.967Z,43.00